sensor_id;sensor_type;location;lat;lon;timestamp;P1;durP1;ratioP1;P2;durP2;ratioP2
18820;SDS011;9539;59.332;18.034;2022-10-29T00:00:00;1.35;;;1.25;;
18820;SDS011;9539;59.332;18.034;2022-10-29T00:02:27;4.47;;;1.40;;
18820;SDS011;9539;59.332;18.034;2022-10-29T00:04:55;2.90;;;1.35;;
18820;SDS011;9539;59.332;18.034;2022-10-29T00:07:21;1.35;;;1.25;;
18820;SDS011;9539;59.332;18.034;2022-10-29T00:09:48;1.40;;;1.30;;
18820;SDS011;9539;59.332;18.034;2022-10-29T00:12:15;1.00;;;1.00;;
18820;SDS011;9539;59.332;18.034;2022-10-29T00:14:41;1.35;;;1.20;;
18820;SDS011;9539;59.332;18.034;2022-10-29T00:17:08;1.15;;;1.08;;
18820;SDS011;9539;59.332;18.034;2022-10-29T00:19:35;1.15;;;1.10;;
18820;SDS011;9539;59.332;18.034;2022-10-29T00:22:03;1.10;;;1.00;;
18820;SDS011;9539;59.332;18.034;2022-10-29T00:24:30;4.13;;;1.17;;
18820;SDS011;9539;59.332;18.034;2022-10-29T00:26:57;1.73;;;1.20;;
18820;SDS011;9539;59.332;18.034;2022-10-29T00:29:23;1.38;;;1.10;;
18820;SDS011;9539;59.332;18.034;2022-10-29T00:31:50;1.33;;;1.20;;
18820;SDS011;9539;59.332;18.034;2022-10-29T00:34:17;1.10;;;1.00;;
18820;SDS011;9539;59.332;18.034;2022-10-29T00:36:43;1.52;;;1.15;;
18820;SDS011;9539;59.332;18.034;2022-10-29T00:39:13;1.20;;;1.10;;
18820;SDS011;9539;59.332;18.034;2022-10-29T00:41:40;1.77;;;1.13;;
18820;SDS011;9539;59.332;18.034;2022-10-29T00:44:23;2.13;;;1.23;;
18820;SDS011;9539;59.332;18.034;2022-10-29T00:46:54;2.15;;;1.20;;
18820;SDS011;9539;59.332;18.034;2022-10-29T00:49:24;1.10;;;1.10;;
18820;SDS011;9539;59.332;18.034;2022-10-29T00:51:52;1.45;;;1.35;;
18820;SDS011;9539;59.332;18.034;2022-10-29T00:54:20;1.67;;;1.50;;
18820;SDS011;9539;59.332;18.034;2022-10-29T00:56:48;3.83;;;1.60;;
18820;SDS011;9539;59.332;18.034;2022-10-29T00:59:19;2.90;;;1.30;;
18820;SDS011;9539;59.332;18.034;2022-10-29T01:01:46;2.90;;;1.30;;
18820;SDS011;9539;59.332;18.034;2022-10-29T01:04:14;1.40;;;1.30;;
18820;SDS011;9539;59.332;18.034;2022-10-29T01:06:42;3.05;;;1.60;;
18820;SDS011;9539;59.332;18.034;2022-10-29T01:09:11;1.90;;;1.70;;
18820;SDS011;9539;59.332;18.034;2022-10-29T01:11:41;1.98;;;1.73;;
18820;SDS011;9539;59.332;18.034;2022-10-29T01:14:21;2.80;;;1.63;;
18820;SDS011;9539;59.332;18.034;2022-10-29T01:16:58;2.28;;;1.60;;
18820;SDS011;9539;59.332;18.034;2022-10-29T01:19:41;2.88;;;1.70;;
18820;SDS011;9539;59.332;18.034;2022-10-29T01:22:20;2.83;;;1.70;;
18820;SDS011;9539;59.332;18.034;2022-10-29T01:24:54;2.85;;;1.95;;
18820;SDS011;9539;59.332;18.034;2022-10-29T01:27:49;2.85;;;1.80;;
18820;SDS011;9539;59.332;18.034;2022-10-29T01:30:24;1.90;;;1.65;;
18820;SDS011;9539;59.332;18.034;2022-10-29T01:33:06;2.72;;;2.10;;
18820;SDS011;9539;59.332;18.034;2022-10-29T01:35:42;2.33;;;1.90;;
18820;SDS011;9539;59.332;18.034;2022-10-29T01:38:18;4.05;;;2.15;;
18820;SDS011;9539;59.332;18.034;2022-10-29T01:40:51;4.50;;;2.30;;
18820;SDS011;9539;59.332;18.034;2022-10-29T01:43:25;2.60;;;2.38;;
18820;SDS011;9539;59.332;18.034;2022-10-29T01:45:58;2.85;;;2.33;;
18820;SDS011;9539;59.332;18.034;2022-10-29T01:48:32;3.35;;;2.30;;
18820;SDS011;9539;59.332;18.034;2022-10-29T01:51:03;3.90;;;2.55;;
18820;SDS011;9539;59.332;18.034;2022-10-29T01:53:35;3.95;;;2.33;;
18820;SDS011;9539;59.332;18.034;2022-10-29T01:56:02;9.20;;;2.83;;
18820;SDS011;9539;59.332;18.034;2022-10-29T01:58:29;6.55;;;2.70;;
18820;SDS011;9539;59.332;18.034;2022-10-29T02:00:58;5.78;;;2.50;;
18820;SDS011;9539;59.332;18.034;2022-10-29T02:03:35;4.80;;;2.67;;
18820;SDS011;9539;59.332;18.034;2022-10-29T02:06:10;5.15;;;3.08;;
18820;SDS011;9539;59.332;18.034;2022-10-29T02:08:47;3.90;;;3.05;;
18820;SDS011;9539;59.332;18.034;2022-10-29T02:11:21;7.35;;;3.10;;
18820;SDS011;9539;59.332;18.034;2022-10-29T02:13:52;6.50;;;3.50;;
18820;SDS011;9539;59.332;18.034;2022-10-29T02:16:24;4.88;;;3.20;;
18820;SDS011;9539;59.332;18.034;2022-10-29T02:18:54;4.40;;;3.47;;
18820;SDS011;9539;59.332;18.034;2022-10-29T02:21:22;8.13;;;3.55;;
18820;SDS011;9539;59.332;18.034;2022-10-29T02:23:48;5.72;;;3.80;;
18820;SDS011;9539;59.332;18.034;2022-10-29T02:26:16;6.32;;;4.00;;
18820;SDS011;9539;59.332;18.034;2022-10-29T02:28:42;6.93;;;4.05;;
18820;SDS011;9539;59.332;18.034;2022-10-29T02:31:09;5.28;;;4.20;;
18820;SDS011;9539;59.332;18.034;2022-10-29T02:33:36;8.95;;;4.50;;
18820;SDS011;9539;59.332;18.034;2022-10-29T02:36:05;7.28;;;4.32;;
18820;SDS011;9539;59.332;18.034;2022-10-29T02:38:32;7.10;;;4.43;;
18820;SDS011;9539;59.332;18.034;2022-10-29T02:40:59;8.93;;;4.97;;
18820;SDS011;9539;59.332;18.034;2022-10-29T02:43:26;8.20;;;5.15;;
18820;SDS011;9539;59.332;18.034;2022-10-29T02:48:38;7.72;;;4.93;;
18820;SDS011;9539;59.332;18.034;2022-10-29T02:51:06;9.05;;;5.75;;
18820;SDS011;9539;59.332;18.034;2022-10-29T02:53:33;9.18;;;5.82;;
18820;SDS011;9539;59.332;18.034;2022-10-29T02:56:00;8.18;;;5.57;;
18820;SDS011;9539;59.332;18.034;2022-10-29T02:58:27;9.73;;;6.82;;
18820;SDS011;9539;59.332;18.034;2022-10-29T03:00:53;11.43;;;7.43;;
18820;SDS011;9539;59.332;18.034;2022-10-29T03:03:20;16.50;;;9.18;;
18820;SDS011;9539;59.332;18.034;2022-10-29T03:05:47;17.80;;;9.73;;
18820;SDS011;9539;59.332;18.034;2022-10-29T03:08:15;18.63;;;9.77;;
18820;SDS011;9539;59.332;18.034;2022-10-29T03:10:42;20.08;;;9.43;;
18820;SDS011;9539;59.332;18.034;2022-10-29T03:13:09;19.45;;;9.95;;
18820;SDS011;9539;59.332;18.034;2022-10-29T03:15:36;18.77;;;10.50;;
18820;SDS011;9539;59.332;18.034;2022-10-29T03:18:04;20.00;;;9.68;;
18820;SDS011;9539;59.332;18.034;2022-10-29T03:20:31;20.20;;;9.60;;
18820;SDS011;9539;59.332;18.034;2022-10-29T03:22:58;21.52;;;10.23;;
18820;SDS011;9539;59.332;18.034;2022-10-29T03:25:26;17.38;;;9.27;;
18820;SDS011;9539;59.332;18.034;2022-10-29T03:27:52;17.63;;;9.75;;
18820;SDS011;9539;59.332;18.034;2022-10-29T03:30:19;19.90;;;9.90;;
18820;SDS011;9539;59.332;18.034;2022-10-29T03:32:46;17.40;;;9.40;;
18820;SDS011;9539;59.332;18.034;2022-10-29T03:35:14;17.58;;;10.23;;
18820;SDS011;9539;59.332;18.034;2022-10-29T03:37:41;17.08;;;9.68;;
18820;SDS011;9539;59.332;18.034;2022-10-29T03:40:08;16.42;;;9.32;;
18820;SDS011;9539;59.332;18.034;2022-10-29T03:42:37;12.63;;;8.75;;
18820;SDS011;9539;59.332;18.034;2022-10-29T03:45:05;16.75;;;8.57;;
18820;SDS011;9539;59.332;18.034;2022-10-29T03:47:32;14.68;;;8.15;;
18820;SDS011;9539;59.332;18.034;2022-10-29T03:49:59;15.48;;;7.82;;
18820;SDS011;9539;59.332;18.034;2022-10-29T03:52:25;15.95;;;8.13;;
18820;SDS011;9539;59.332;18.034;2022-10-29T03:54:52;17.90;;;8.68;;
18820;SDS011;9539;59.332;18.034;2022-10-29T03:57:19;14.35;;;8.82;;
18820;SDS011;9539;59.332;18.034;2022-10-29T03:59:47;12.85;;;7.93;;
18820;SDS011;9539;59.332;18.034;2022-10-29T04:02:14;13.45;;;8.50;;
18820;SDS011;9539;59.332;18.034;2022-10-29T04:04:41;15.43;;;8.43;;
18820;SDS011;9539;59.332;18.034;2022-10-29T04:07:08;15.95;;;8.68;;
18820;SDS011;9539;59.332;18.034;2022-10-29T04:09:34;17.42;;;9.90;;
18820;SDS011;9539;59.332;18.034;2022-10-29T04:12:01;16.75;;;8.95;;
18820;SDS011;9539;59.332;18.034;2022-10-29T04:14:28;16.63;;;9.68;;
18820;SDS011;9539;59.332;18.034;2022-10-29T04:16:57;18.60;;;10.73;;
18820;SDS011;9539;59.332;18.034;2022-10-29T04:19:24;17.88;;;10.63;;
18820;SDS011;9539;59.332;18.034;2022-10-29T04:21:51;19.00;;;10.30;;
18820;SDS011;9539;59.332;18.034;2022-10-29T04:24:18;20.38;;;10.32;;
18820;SDS011;9539;59.332;18.034;2022-10-29T04:26:44;16.33;;;10.02;;
18820;SDS011;9539;59.332;18.034;2022-10-29T04:29:11;22.92;;;10.85;;
18820;SDS011;9539;59.332;18.034;2022-10-29T04:31:38;20.30;;;10.90;;
18820;SDS011;9539;59.332;18.034;2022-10-29T04:34:06;18.80;;;10.73;;
18820;SDS011;9539;59.332;18.034;2022-10-29T04:36:33;20.52;;;12.05;;
18820;SDS011;9539;59.332;18.034;2022-10-29T04:38:59;19.58;;;11.82;;
18820;SDS011;9539;59.332;18.034;2022-10-29T04:41:26;22.30;;;11.65;;
18820;SDS011;9539;59.332;18.034;2022-10-29T04:43:53;21.40;;;12.10;;
18820;SDS011;9539;59.332;18.034;2022-10-29T04:46:20;21.95;;;11.65;;
18820;SDS011;9539;59.332;18.034;2022-10-29T04:48:47;21.52;;;11.15;;
18820;SDS011;9539;59.332;18.034;2022-10-29T04:51:18;21.17;;;11.25;;
18820;SDS011;9539;59.332;18.034;2022-10-29T04:53:46;22.95;;;11.45;;
18820;SDS011;9539;59.332;18.034;2022-10-29T04:56:12;21.17;;;12.07;;
18820;SDS011;9539;59.332;18.034;2022-10-29T04:58:39;22.38;;;12.00;;
18820;SDS011;9539;59.332;18.034;2022-10-29T05:01:06;20.67;;;11.10;;
18820;SDS011;9539;59.332;18.034;2022-10-29T05:03:33;17.83;;;11.20;;
18820;SDS011;9539;59.332;18.034;2022-10-29T05:06:00;20.05;;;10.85;;
18820;SDS011;9539;59.332;18.034;2022-10-29T05:08:29;21.20;;;11.82;;
18820;SDS011;9539;59.332;18.034;2022-10-29T05:10:56;18.17;;;10.85;;
18820;SDS011;9539;59.332;18.034;2022-10-29T05:13:23;21.95;;;11.48;;
18820;SDS011;9539;59.332;18.034;2022-10-29T05:15:50;17.75;;;11.27;;
18820;SDS011;9539;59.332;18.034;2022-10-29T05:18:17;17.27;;;10.38;;
18820;SDS011;9539;59.332;18.034;2022-10-29T05:20:44;18.52;;;11.10;;
18820;SDS011;9539;59.332;18.034;2022-10-29T05:23:11;15.52;;;10.50;;
18820;SDS011;9539;59.332;18.034;2022-10-29T05:25:39;19.02;;;10.73;;
18820;SDS011;9539;59.332;18.034;2022-10-29T05:28:08;17.67;;;10.40;;
18820;SDS011;9539;59.332;18.034;2022-10-29T05:30:38;15.48;;;10.00;;
18820;SDS011;9539;59.332;18.034;2022-10-29T05:33:05;18.15;;;10.32;;
18820;SDS011;9539;59.332;18.034;2022-10-29T05:35:33;17.27;;;9.35;;
18820;SDS011;9539;59.332;18.034;2022-10-29T05:38:00;14.73;;;9.77;;
18820;SDS011;9539;59.332;18.034;2022-10-29T05:40:27;16.25;;;9.40;;
18820;SDS011;9539;59.332;18.034;2022-10-29T05:42:56;17.45;;;9.80;;
18820;SDS011;9539;59.332;18.034;2022-10-29T05:45:23;12.27;;;8.80;;
18820;SDS011;9539;59.332;18.034;2022-10-29T05:47:53;12.93;;;8.40;;
18820;SDS011;9539;59.332;18.034;2022-10-29T05:50:21;11.52;;;8.23;;
18820;SDS011;9539;59.332;18.034;2022-10-29T05:52:53;16.08;;;8.30;;
18820;SDS011;9539;59.332;18.034;2022-10-29T05:55:20;11.55;;;7.63;;
18820;SDS011;9539;59.332;18.034;2022-10-29T05:57:47;11.00;;;6.88;;
18820;SDS011;9539;59.332;18.034;2022-10-29T06:00:15;7.90;;;6.47;;
18820;SDS011;9539;59.332;18.034;2022-10-29T06:02:42;8.07;;;6.63;;
18820;SDS011;9539;59.332;18.034;2022-10-29T06:05:09;12.15;;;6.50;;
18820;SDS011;9539;59.332;18.034;2022-10-29T06:07:36;10.43;;;7.00;;
18820;SDS011;9539;59.332;18.034;2022-10-29T06:10:03;10.98;;;6.53;;
18820;SDS011;9539;59.332;18.034;2022-10-29T06:12:30;9.40;;;6.50;;
18820;SDS011;9539;59.332;18.034;2022-10-29T06:15:00;10.90;;;6.10;;
18820;SDS011;9539;59.332;18.034;2022-10-29T06:17:28;8.40;;;5.47;;
18820;SDS011;9539;59.332;18.034;2022-10-29T06:19:55;7.05;;;5.00;;
18820;SDS011;9539;59.332;18.034;2022-10-29T06:22:21;8.88;;;5.65;;
18820;SDS011;9539;59.332;18.034;2022-10-29T06:24:48;8.52;;;5.15;;
18820;SDS011;9539;59.332;18.034;2022-10-29T06:27:15;6.07;;;4.35;;
18820;SDS011;9539;59.332;18.034;2022-10-29T06:29:42;5.63;;;4.05;;
18820;SDS011;9539;59.332;18.034;2022-10-29T06:32:08;6.97;;;3.80;;
18820;SDS011;9539;59.332;18.034;2022-10-29T06:34:36;5.68;;;3.47;;
18820;SDS011;9539;59.332;18.034;2022-10-29T06:37:03;7.70;;;3.30;;
18820;SDS011;9539;59.332;18.034;2022-10-29T06:39:30;4.38;;;2.90;;
18820;SDS011;9539;59.332;18.034;2022-10-29T06:41:57;4.75;;;3.00;;
18820;SDS011;9539;59.332;18.034;2022-10-29T06:44:23;5.72;;;2.85;;
18820;SDS011;9539;59.332;18.034;2022-10-29T06:46:50;7.18;;;2.97;;
18820;SDS011;9539;59.332;18.034;2022-10-29T06:49:17;3.97;;;2.40;;
18820;SDS011;9539;59.332;18.034;2022-10-29T06:51:45;5.03;;;2.28;;
18820;SDS011;9539;59.332;18.034;2022-10-29T06:54:12;5.80;;;2.20;;
18820;SDS011;9539;59.332;18.034;2022-10-29T06:56:39;5.80;;;2.40;;
18820;SDS011;9539;59.332;18.034;2022-10-29T06:59:06;4.72;;;2.10;;
18820;SDS011;9539;59.332;18.034;2022-10-29T07:01:33;3.97;;;2.00;;
18820;SDS011;9539;59.332;18.034;2022-10-29T07:03:59;4.95;;;2.10;;
18820;SDS011;9539;59.332;18.034;2022-10-29T07:06:27;4.55;;;2.00;;
18820;SDS011;9539;59.332;18.034;2022-10-29T07:08:55;3.47;;;1.90;;
18820;SDS011;9539;59.332;18.034;2022-10-29T07:11:22;4.13;;;1.90;;
18820;SDS011;9539;59.332;18.034;2022-10-29T07:13:48;8.07;;;2.30;;
18820;SDS011;9539;59.332;18.034;2022-10-29T07:16:15;4.68;;;1.95;;
18820;SDS011;9539;59.332;18.034;2022-10-29T07:18:42;4.13;;;1.98;;
18820;SDS011;9539;59.332;18.034;2022-10-29T07:21:09;4.68;;;2.28;;
18820;SDS011;9539;59.332;18.034;2022-10-29T07:23:36;6.03;;;2.20;;
18820;SDS011;9539;59.332;18.034;2022-10-29T07:26:05;4.20;;;2.08;;
18820;SDS011;9539;59.332;18.034;2022-10-29T07:28:31;7.40;;;2.30;;
18820;SDS011;9539;59.332;18.034;2022-10-29T07:30:59;4.72;;;2.10;;
18820;SDS011;9539;59.332;18.034;2022-10-29T07:33:26;6.07;;;2.10;;
18820;SDS011;9539;59.332;18.034;2022-10-29T07:35:54;4.82;;;1.92;;
18820;SDS011;9539;59.332;18.034;2022-10-29T07:38:22;8.23;;;2.15;;
18820;SDS011;9539;59.332;18.034;2022-10-29T07:40:49;6.78;;;2.30;;
18820;SDS011;9539;59.332;18.034;2022-10-29T07:43:18;4.43;;;1.95;;
18820;SDS011;9539;59.332;18.034;2022-10-29T07:45:45;9.32;;;2.30;;
18820;SDS011;9539;59.332;18.034;2022-10-29T07:48:14;6.07;;;2.05;;
18820;SDS011;9539;59.332;18.034;2022-10-29T07:50:40;4.63;;;1.88;;
18820;SDS011;9539;59.332;18.034;2022-10-29T07:53:08;7.40;;;2.30;;
18820;SDS011;9539;59.332;18.034;2022-10-29T07:55:35;7.28;;;2.30;;
18820;SDS011;9539;59.332;18.034;2022-10-29T07:58:02;6.32;;;2.40;;
18820;SDS011;9539;59.332;18.034;2022-10-29T08:00:33;6.10;;;2.50;;
18820;SDS011;9539;59.332;18.034;2022-10-29T08:03:04;6.60;;;2.50;;
18820;SDS011;9539;59.332;18.034;2022-10-29T08:05:31;5.95;;;2.22;;
18820;SDS011;9539;59.332;18.034;2022-10-29T08:07:58;5.40;;;2.13;;
18820;SDS011;9539;59.332;18.034;2022-10-29T08:10:25;5.13;;;2.13;;
18820;SDS011;9539;59.332;18.034;2022-10-29T08:12:53;7.38;;;2.60;;
18820;SDS011;9539;59.332;18.034;2022-10-29T08:15:21;6.95;;;2.83;;
18820;SDS011;9539;59.332;18.034;2022-10-29T08:17:50;6.55;;;2.28;;
18820;SDS011;9539;59.332;18.034;2022-10-29T08:20:17;4.75;;;2.10;;
18820;SDS011;9539;59.332;18.034;2022-10-29T08:22:45;7.32;;;2.20;;
18820;SDS011;9539;59.332;18.034;2022-10-29T08:25:12;5.88;;;2.05;;
18820;SDS011;9539;59.332;18.034;2022-10-29T08:27:39;7.28;;;2.05;;
18820;SDS011;9539;59.332;18.034;2022-10-29T08:30:06;8.90;;;2.20;;
18820;SDS011;9539;59.332;18.034;2022-10-29T08:32:35;5.28;;;1.70;;
18820;SDS011;9539;59.332;18.034;2022-10-29T08:35:03;6.68;;;2.00;;
18820;SDS011;9539;59.332;18.034;2022-10-29T08:37:30;7.15;;;2.17;;
18820;SDS011;9539;59.332;18.034;2022-10-29T08:39:57;5.65;;;1.80;;
18820;SDS011;9539;59.332;18.034;2022-10-29T08:42:34;6.57;;;2.03;;
18820;SDS011;9539;59.332;18.034;2022-10-29T08:45:10;5.68;;;1.90;;
18820;SDS011;9539;59.332;18.034;2022-10-29T08:47:47;5.50;;;1.90;;
18820;SDS011;9539;59.332;18.034;2022-10-29T08:50:28;7.55;;;2.00;;
18820;SDS011;9539;59.332;18.034;2022-10-29T08:52:58;7.43;;;1.90;;
18820;SDS011;9539;59.332;18.034;2022-10-29T08:55:28;4.68;;;1.90;;
18820;SDS011;9539;59.332;18.034;2022-10-29T08:58:02;4.78;;;1.75;;
18820;SDS011;9539;59.332;18.034;2022-10-29T09:00:36;5.25;;;1.92;;
18820;SDS011;9539;59.332;18.034;2022-10-29T09:03:07;5.35;;;1.88;;
18820;SDS011;9539;59.332;18.034;2022-10-29T09:05:41;6.30;;;1.92;;
18820;SDS011;9539;59.332;18.034;2022-10-29T09:08:21;4.50;;;1.73;;
18820;SDS011;9539;59.332;18.034;2022-10-29T09:10:57;5.55;;;1.80;;
18820;SDS011;9539;59.332;18.034;2022-10-29T09:13:34;4.93;;;1.80;;
18820;SDS011;9539;59.332;18.034;2022-10-29T09:16:15;5.07;;;1.42;;
18820;SDS011;9539;59.332;18.034;2022-10-29T09:18:57;4.13;;;1.60;;
18820;SDS011;9539;59.332;18.034;2022-10-29T09:21:38;7.20;;;1.52;;
18820;SDS011;9539;59.332;18.034;2022-10-29T09:24:17;4.93;;;1.60;;
18820;SDS011;9539;59.332;18.034;2022-10-29T09:26:55;5.00;;;1.85;;
18820;SDS011;9539;59.332;18.034;2022-10-29T09:32:24;2.88;;;1.42;;
18820;SDS011;9539;59.332;18.034;2022-10-29T09:34:59;5.53;;;1.92;;
18820;SDS011;9539;59.332;18.034;2022-10-29T09:37:38;4.72;;;1.40;;
18820;SDS011;9539;59.332;18.034;2022-10-29T09:40:14;5.95;;;1.50;;
18820;SDS011;9539;59.332;18.034;2022-10-29T09:42:48;3.92;;;1.45;;
18820;SDS011;9539;59.332;18.034;2022-10-29T09:45:16;4.43;;;1.70;;
18820;SDS011;9539;59.332;18.034;2022-10-29T09:47:48;4.80;;;1.55;;
18820;SDS011;9539;59.332;18.034;2022-10-29T09:50:26;4.35;;;1.50;;
18820;SDS011;9539;59.332;18.034;2022-10-29T09:53:01;5.25;;;1.73;;
18820;SDS011;9539;59.332;18.034;2022-10-29T09:55:29;8.32;;;1.95;;
18820;SDS011;9539;59.332;18.034;2022-10-29T09:58:03;4.63;;;1.73;;
18820;SDS011;9539;59.332;18.034;2022-10-29T10:00:32;3.67;;;1.30;;
18820;SDS011;9539;59.332;18.034;2022-10-29T10:03:00;6.45;;;1.80;;
18820;SDS011;9539;59.332;18.034;2022-10-29T10:05:34;2.42;;;1.30;;
18820;SDS011;9539;59.332;18.034;2022-10-29T10:08:05;5.53;;;1.63;;
18820;SDS011;9539;59.332;18.034;2022-10-29T10:10:34;3.80;;;1.35;;
18820;SDS011;9539;59.332;18.034;2022-10-29T10:13:03;2.75;;;1.30;;
18820;SDS011;9539;59.332;18.034;2022-10-29T10:15:32;5.22;;;1.50;;
18820;SDS011;9539;59.332;18.034;2022-10-29T10:18:00;3.17;;;1.20;;
18820;SDS011;9539;59.332;18.034;2022-10-29T10:20:30;3.35;;;1.48;;
18820;SDS011;9539;59.332;18.034;2022-10-29T10:23:13;1.88;;;1.23;;
18820;SDS011;9539;59.332;18.034;2022-10-29T10:25:47;5.47;;;1.60;;
18820;SDS011;9539;59.332;18.034;2022-10-29T10:28:15;3.63;;;1.35;;
18820;SDS011;9539;59.332;18.034;2022-10-29T10:30:44;3.85;;;1.40;;
18820;SDS011;9539;59.332;18.034;2022-10-29T10:33:22;3.58;;;1.30;;
18820;SDS011;9539;59.332;18.034;2022-10-29T10:35:51;3.80;;;1.30;;
18820;SDS011;9539;59.332;18.034;2022-10-29T10:38:20;7.63;;;1.55;;
18820;SDS011;9539;59.332;18.034;2022-10-29T10:40:53;4.45;;;1.25;;
18820;SDS011;9539;59.332;18.034;2022-10-29T10:43:21;2.33;;;1.27;;
18820;SDS011;9539;59.332;18.034;2022-10-29T10:45:54;4.05;;;1.35;;
18820;SDS011;9539;59.332;18.034;2022-10-29T10:48:24;2.05;;;1.20;;
18820;SDS011;9539;59.332;18.034;2022-10-29T10:51:06;3.20;;;1.50;;
18820;SDS011;9539;59.332;18.034;2022-10-29T10:53:36;3.35;;;1.33;;
18820;SDS011;9539;59.332;18.034;2022-10-29T10:56:12;2.67;;;1.20;;
18820;SDS011;9539;59.332;18.034;2022-10-29T10:58:44;4.10;;;1.38;;
18820;SDS011;9539;59.332;18.034;2022-10-29T11:01:15;3.97;;;1.50;;
18820;SDS011;9539;59.332;18.034;2022-10-29T11:03:47;3.88;;;1.20;;
18820;SDS011;9539;59.332;18.034;2022-10-29T11:06:19;2.38;;;1.08;;
18820;SDS011;9539;59.332;18.034;2022-10-29T11:08:53;3.65;;;1.00;;
18820;SDS011;9539;59.332;18.034;2022-10-29T11:11:24;3.03;;;1.25;;
18820;SDS011;9539;59.332;18.034;2022-10-29T11:13:58;6.00;;;1.38;;
18820;SDS011;9539;59.332;18.034;2022-10-29T11:16:32;6.15;;;1.60;;
18820;SDS011;9539;59.332;18.034;2022-10-29T11:19:06;4.07;;;1.45;;
18820;SDS011;9539;59.332;18.034;2022-10-29T11:21:41;3.22;;;1.30;;
18820;SDS011;9539;59.332;18.034;2022-10-29T11:24:14;7.65;;;1.70;;
18820;SDS011;9539;59.332;18.034;2022-10-29T11:26:48;3.85;;;1.40;;
18820;SDS011;9539;59.332;18.034;2022-10-29T11:29:21;4.70;;;1.50;;
18820;SDS011;9539;59.332;18.034;2022-10-29T11:31:57;2.22;;;1.20;;
18820;SDS011;9539;59.332;18.034;2022-10-29T11:34:36;4.50;;;1.25;;
18820;SDS011;9539;59.332;18.034;2022-10-29T11:37:13;2.63;;;1.10;;
18820;SDS011;9539;59.332;18.034;2022-10-29T11:39:45;4.40;;;1.35;;
18820;SDS011;9539;59.332;18.034;2022-10-29T11:42:16;6.50;;;1.30;;
18820;SDS011;9539;59.332;18.034;2022-10-29T11:44:43;2.92;;;1.27;;
18820;SDS011;9539;59.332;18.034;2022-10-29T11:47:14;3.22;;;1.30;;
18820;SDS011;9539;59.332;18.034;2022-10-29T11:49:56;3.92;;;1.23;;
18820;SDS011;9539;59.332;18.034;2022-10-29T11:52:33;2.95;;;1.10;;
18820;SDS011;9539;59.332;18.034;2022-10-29T11:55:17;3.97;;;1.38;;
18820;SDS011;9539;59.332;18.034;2022-10-29T11:57:51;6.28;;;1.77;;
18820;SDS011;9539;59.332;18.034;2022-10-29T12:00:21;4.78;;;1.40;;
18820;SDS011;9539;59.332;18.034;2022-10-29T12:02:59;2.88;;;1.35;;
18820;SDS011;9539;59.332;18.034;2022-10-29T12:05:48;3.53;;;1.20;;
18820;SDS011;9539;59.332;18.034;2022-10-29T12:08:28;4.82;;;1.40;;
18820;SDS011;9539;59.332;18.034;2022-10-29T12:11:12;4.32;;;1.30;;
18820;SDS011;9539;59.332;18.034;2022-10-29T12:13:47;3.33;;;1.35;;
18820;SDS011;9539;59.332;18.034;2022-10-29T12:16:27;2.38;;;1.08;;
18820;SDS011;9539;59.332;18.034;2022-10-29T12:19:01;5.30;;;1.80;;
18820;SDS011;9539;59.332;18.034;2022-10-29T12:21:39;7.32;;;1.65;;
18820;SDS011;9539;59.332;18.034;2022-10-29T12:24:19;5.13;;;1.50;;
18820;SDS011;9539;59.332;18.034;2022-10-29T12:26:59;5.50;;;1.25;;
18820;SDS011;9539;59.332;18.034;2022-10-29T12:29:36;4.13;;;1.50;;
18820;SDS011;9539;59.332;18.034;2022-10-29T12:32:12;4.40;;;1.52;;
18820;SDS011;9539;59.332;18.034;2022-10-29T12:34:46;6.45;;;1.83;;
18820;SDS011;9539;59.332;18.034;2022-10-29T12:37:20;3.78;;;1.40;;
18820;SDS011;9539;59.332;18.034;2022-10-29T12:39:59;4.85;;;1.70;;
18820;SDS011;9539;59.332;18.034;2022-10-29T12:42:29;6.85;;;1.60;;
18820;SDS011;9539;59.332;18.034;2022-10-29T12:45:01;6.70;;;1.60;;
18820;SDS011;9539;59.332;18.034;2022-10-29T12:47:38;6.55;;;1.45;;
18820;SDS011;9539;59.332;18.034;2022-10-29T12:50:17;3.67;;;1.35;;
18820;SDS011;9539;59.332;18.034;2022-10-29T12:52:55;6.03;;;1.45;;
18820;SDS011;9539;59.332;18.034;2022-10-29T12:55:28;5.40;;;1.40;;
18820;SDS011;9539;59.332;18.034;2022-10-29T12:57:58;3.80;;;1.30;;
18820;SDS011;9539;59.332;18.034;2022-10-29T13:00:31;4.70;;;1.58;;
18820;SDS011;9539;59.332;18.034;2022-10-29T13:03:09;4.90;;;1.45;;
18820;SDS011;9539;59.332;18.034;2022-10-29T13:05:37;4.00;;;1.70;;
18820;SDS011;9539;59.332;18.034;2022-10-29T13:11:00;2.65;;;1.15;;
18820;SDS011;9539;59.332;18.034;2022-10-29T13:13:39;6.65;;;1.70;;
18820;SDS011;9539;59.332;18.034;2022-10-29T13:16:18;6.85;;;1.55;;
18820;SDS011;9539;59.332;18.034;2022-10-29T13:19:03;4.82;;;1.42;;
18820;SDS011;9539;59.332;18.034;2022-10-29T13:31:44;6.35;;;1.38;;
18820;SDS011;9539;59.332;18.034;2022-10-29T13:43:08;5.80;;;1.80;;
18820;SDS011;9539;59.332;18.034;2022-10-29T13:45:41;4.75;;;1.77;;
18820;SDS011;9539;59.332;18.034;2022-10-29T13:48:16;4.45;;;1.80;;
18820;SDS011;9539;59.332;18.034;2022-10-29T13:50:50;4.78;;;1.60;;
18820;SDS011;9539;59.332;18.034;2022-10-29T13:53:21;6.68;;;1.50;;
18820;SDS011;9539;59.332;18.034;2022-10-29T13:55:52;5.95;;;1.73;;
18820;SDS011;9539;59.332;18.034;2022-10-29T13:58:22;4.63;;;1.38;;
18820;SDS011;9539;59.332;18.034;2022-10-29T14:00:55;3.63;;;1.60;;
18820;SDS011;9539;59.332;18.034;2022-10-29T14:03:25;4.57;;;1.50;;
18820;SDS011;9539;59.332;18.034;2022-10-29T14:05:57;7.63;;;1.75;;
18820;SDS011;9539;59.332;18.034;2022-10-29T14:08:29;4.47;;;1.30;;
18820;SDS011;9539;59.332;18.034;2022-10-29T14:11:06;8.18;;;1.80;;
18820;SDS011;9539;59.332;18.034;2022-10-29T14:13:40;5.68;;;1.60;;
18820;SDS011;9539;59.332;18.034;2022-10-29T14:16:12;5.22;;;1.60;;
18820;SDS011;9539;59.332;18.034;2022-10-29T14:18:41;6.00;;;1.63;;
18820;SDS011;9539;59.332;18.034;2022-10-29T14:21:12;3.50;;;1.70;;
18820;SDS011;9539;59.332;18.034;2022-10-29T14:23:50;6.30;;;1.80;;
18820;SDS011;9539;59.332;18.034;2022-10-29T14:26:21;6.30;;;1.90;;
18820;SDS011;9539;59.332;18.034;2022-10-29T14:28:48;8.68;;;1.98;;
18820;SDS011;9539;59.332;18.034;2022-10-29T14:31:17;7.25;;;1.83;;
18820;SDS011;9539;59.332;18.034;2022-10-29T14:33:51;5.82;;;1.75;;
18820;SDS011;9539;59.332;18.034;2022-10-29T14:36:20;4.80;;;1.80;;
18820;SDS011;9539;59.332;18.034;2022-10-29T14:38:54;4.82;;;2.00;;
18820;SDS011;9539;59.332;18.034;2022-10-29T14:41:24;7.00;;;2.40;;
18820;SDS011;9539;59.332;18.034;2022-10-29T14:43:55;8.93;;;2.67;;
18820;SDS011;9539;59.332;18.034;2022-10-29T14:46:30;6.93;;;2.60;;
18820;SDS011;9539;59.332;18.034;2022-10-29T14:49:00;7.43;;;2.85;;
18820;SDS011;9539;59.332;18.034;2022-10-29T14:51:32;6.78;;;2.90;;
18820;SDS011;9539;59.332;18.034;2022-10-29T14:54:03;5.50;;;2.42;;
18820;SDS011;9539;59.332;18.034;2022-10-29T14:56:35;8.02;;;2.10;;
18820;SDS011;9539;59.332;18.034;2022-10-29T14:59:07;4.90;;;2.03;;
18820;SDS011;9539;59.332;18.034;2022-10-29T15:01:45;5.40;;;1.80;;
18820;SDS011;9539;59.332;18.034;2022-10-29T15:04:16;5.97;;;1.73;;
18820;SDS011;9539;59.332;18.034;2022-10-29T15:06:44;7.63;;;2.00;;
18820;SDS011;9539;59.332;18.034;2022-10-29T15:09:12;7.13;;;1.60;;
18820;SDS011;9539;59.332;18.034;2022-10-29T15:11:56;5.25;;;1.48;;
18820;SDS011;9539;59.332;18.034;2022-10-29T15:14:30;4.28;;;1.35;;
18820;SDS011;9539;59.332;18.034;2022-10-29T15:17:04;6.32;;;1.67;;
18820;SDS011;9539;59.332;18.034;2022-10-29T15:19:34;6.68;;;1.75;;
18820;SDS011;9539;59.332;18.034;2022-10-29T15:22:06;5.07;;;1.80;;
18820;SDS011;9539;59.332;18.034;2022-10-29T15:24:33;7.40;;;1.42;;
18820;SDS011;9539;59.332;18.034;2022-10-29T15:27:01;5.38;;;1.70;;
18820;SDS011;9539;59.332;18.034;2022-10-29T15:29:31;4.78;;;1.67;;